KAL147 RKSI-EGLL
Flight info
| Callsign | KAL147 |
|---|---|
| Flight time | N/A |
| Altitude | 30000 |
| Route | NOPIK Y697 AGAVO/K0833S0660 A591 IKEKA W4 FZ/K0935S0920 W4 HCH W200 DOVIV W55 VIDEL/K0928S0980 W55 PAMRU W34 LADIX B339 ASILA A575 UPREK W28 LAGEB W66 NUKTI B215 IRPEP/K0900S1040 B215 FKG A368 SARIN/K0902F340 N161 RELGE/K0911F360 N161 GASBI/N0491F360 N161 LEKBA DCT LEYLA T916 MATAL M11 REBLO UM11 CRM UL746 ODERO L746 LUGEB DCT BUDOP/N0478F380 DCT BEGLA DCT DEXIT DCT INBED DCT BOMBI DCT ADKUV DCT SOGRI DCT DENUT L608 LOGAN |
| Aircraft | B77W/H-SDE1E2E3FGHIJ2J3J4J5M1RWXY/LB1D1 |
Departure
| Time | N/A |
|---|---|
| Airport | Incheon International Airport (RKSI) |
Arrival
| Time | 2026-05-07 05:10 |
|---|---|
| Airport | London Heathrow Airport (EGLL) |
| Time | Latitude | Longitude | Altitude | Speed | Heading |
|---|---|---|---|---|---|
| 2026-05-07 03:11 | 47.41951 | 18.78861 | 35930 ft | 457 kts | 287° |
| 2026-05-07 03:11 | 47.43055 | 18.74528 | 35927 ft | 457 kts | 287° |
| 2026-05-07 03:12 | 47.45316 | 18.65624 | 35930 ft | 458 kts | 287° |
| 2026-05-07 03:12 | 47.47543 | 18.56821 | 35925 ft | 456 kts | 287° |
| 2026-05-07 03:13 | 47.49775 | 18.47964 | 35929 ft | 458 kts | 287° |
| 2026-05-07 03:13 | 47.52002 | 18.39092 | 35924 ft | 457 kts | 286° |
| 2026-05-07 03:14 | 47.54194 | 18.30327 | 35925 ft | 455 kts | 285° |
| 2026-05-07 03:15 | 47.57478 | 18.17126 | 35913 ft | 457 kts | 285° |
| 2026-05-07 03:15 | 47.59655 | 18.08332 | 35911 ft | 457 kts | 285° |
| 2026-05-07 03:16 | 47.61825 | 17.99534 | 35913 ft | 457 kts | 285° |
| 2026-05-07 03:16 | 47.63991 | 17.90717 | 35910 ft | 457 kts | 285° |
| 2026-05-07 03:17 | 47.66164 | 17.81837 | 35914 ft | 458 kts | 285° |
| 2026-05-07 03:17 | 47.68330 | 17.72951 | 35912 ft | 458 kts | 285° |
| 2026-05-07 03:18 | 47.70481 | 17.64090 | 35910 ft | 458 kts | 285° |
| 2026-05-07 03:18 | 47.72630 | 17.55198 | 35909 ft | 459 kts | 285° |
| 2026-05-07 03:19 | 47.74770 | 17.46312 | 35905 ft | 460 kts | 285° |
| 2026-05-07 03:19 | 47.76923 | 17.37337 | 35906 ft | 460 kts | 285° |
| 2026-05-07 03:20 | 47.79057 | 17.28403 | 35913 ft | 460 kts | 284° |
| 2026-05-07 03:20 | 47.81187 | 17.19445 | 35912 ft | 461 kts | 284° |
| 2026-05-07 03:21 | 47.83322 | 17.10436 | 35909 ft | 462 kts | 284° |
| 2026-05-07 03:21 | 47.85844 | 17.01696 | 35913 ft | 465 kts | 288° |
| 2026-05-07 03:22 | 47.88453 | 16.92913 | 35913 ft | 466 kts | 288° |
| 2026-05-07 03:22 | 47.91038 | 16.84112 | 35911 ft | 465 kts | 288° |
| 2026-05-07 03:23 | 47.93609 | 16.75286 | 35911 ft | 464 kts | 288° |
| 2026-05-07 03:23 | 47.96171 | 16.66439 | 35915 ft | 465 kts | 288° |
| 2026-05-07 03:24 | 47.98725 | 16.57578 | 35911 ft | 462 kts | 288° |
| 2026-05-07 03:24 | 48.01292 | 16.48630 | 35913 ft | 463 kts | 288° |
| 2026-05-07 03:25 | 48.03819 | 16.39784 | 35908 ft | 464 kts | 287° |
| 2026-05-07 03:25 | 48.06348 | 16.30900 | 35920 ft | 465 kts | 287° |
| 2026-05-07 03:26 | 48.08862 | 16.22036 | 35920 ft | 463 kts | 286° |
| 2026-05-07 03:26 | 48.11373 | 16.13147 | 35920 ft | 464 kts | 286° |
| 2026-05-07 03:27 | 48.13870 | 16.04275 | 35915 ft | 462 kts | 286° |
| 2026-05-07 03:27 | 48.16346 | 15.95446 | 35922 ft | 463 kts | 286° |
| 2026-05-07 03:28 | 48.18853 | 15.86468 | 35923 ft | 464 kts | 286° |
| 2026-05-07 03:28 | 48.21331 | 15.77570 | 35921 ft | 462 kts | 286° |
| 2026-05-07 03:29 | 48.23812 | 15.68618 | 35927 ft | 465 kts | 286° |
| 2026-05-07 03:29 | 48.26273 | 15.59711 | 35923 ft | 464 kts | 286° |
| 2026-05-07 03:30 | 48.28740 | 15.50748 | 35918 ft | 464 kts | 286° |
| 2026-05-07 03:30 | 48.31196 | 15.41790 | 35923 ft | 464 kts | 286° |
| 2026-05-07 03:31 | 48.33641 | 15.32837 | 35922 ft | 464 kts | 285° |
| 2026-05-07 03:31 | 48.36071 | 15.23907 | 35922 ft | 463 kts | 285° |
| 2026-05-07 03:32 | 48.38502 | 15.14937 | 35926 ft | 464 kts | 285° |
| 2026-05-07 03:32 | 48.40916 | 15.05994 | 35922 ft | 464 kts | 285° |
| 2026-05-07 03:33 | 48.43331 | 14.97019 | 35917 ft | 464 kts | 285° |
| 2026-05-07 03:33 | 48.45748 | 14.87997 | 35907 ft | 464 kts | 285° |
| 2026-05-07 03:34 | 48.48152 | 14.78988 | 35913 ft | 466 kts | 285° |
| 2026-05-07 03:34 | 48.50563 | 14.69923 | 35910 ft | 465 kts | 285° |
| 2026-05-07 03:35 | 48.52967 | 14.60841 | 35912 ft | 469 kts | 285° |
| 2026-05-07 03:35 | 48.55361 | 14.51771 | 35914 ft | 465 kts | 285° |
| 2026-05-07 03:36 | 48.57733 | 14.42741 | 35907 ft | 466 kts | 285° |
| 2026-05-07 03:36 | 48.60135 | 14.33562 | 35908 ft | 469 kts | 284° |
| 2026-05-07 03:37 | 48.62520 | 14.24418 | 35906 ft | 467 kts | 284° |
| 2026-05-07 03:37 | 48.64883 | 14.15313 | 35903 ft | 470 kts | 284° |
| 2026-05-07 03:38 | 48.67258 | 14.06129 | 35902 ft | 469 kts | 284° |
| 2026-05-07 03:38 | 48.69643 | 13.96872 | 35918 ft | 468 kts | 284° |
| 2026-05-07 03:39 | 48.71995 | 13.87702 | 35913 ft | 471 kts | 284° |
| 2026-05-07 03:39 | 48.74348 | 13.78494 | 35916 ft | 470 kts | 284° |
| 2026-05-07 03:40 | 48.76696 | 13.69251 | 35917 ft | 472 kts | 284° |
| 2026-05-07 03:40 | 48.78944 | 13.59879 | 35918 ft | 472 kts | 284° |
| 2026-05-07 03:41 | 48.81181 | 13.50485 | 35922 ft | 471 kts | 284° |
| 2026-05-07 03:41 | 48.83405 | 13.41117 | 35919 ft | 473 kts | 284° |
| 2026-05-07 03:42 | 48.85617 | 13.31771 | 35925 ft | 472 kts | 283° |
| 2026-05-07 03:42 | 48.87843 | 13.22325 | 35938 ft | 474 kts | 283° |
| 2026-05-07 03:43 | 48.90057 | 13.12895 | 35930 ft | 473 kts | 283° |
| 2026-05-07 03:43 | 48.92257 | 13.03484 | 35943 ft | 475 kts | 283° |
| 2026-05-07 03:44 | 48.94461 | 12.94015 | 35914 ft | 477 kts | 283° |
| 2026-05-07 03:44 | 48.96659 | 12.84533 | 35925 ft | 477 kts | 284° |
| 2026-05-07 03:45 | 48.98842 | 12.75071 | 35904 ft | 477 kts | 284° |
| 2026-05-07 03:45 | 49.01032 | 12.65535 | 35908 ft | 478 kts | 284° |
| 2026-05-07 03:46 | 49.03212 | 12.56006 | 35917 ft | 476 kts | 284° |
| 2026-05-07 03:46 | 49.05381 | 12.46481 | 35913 ft | 478 kts | 284° |
| 2026-05-07 03:47 | 49.07532 | 12.36988 | 35926 ft | 479 kts | 284° |
| 2026-05-07 03:47 | 49.09692 | 12.27417 | 35922 ft | 479 kts | 283° |
| 2026-05-07 03:48 | 49.11861 | 12.17757 | 35903 ft | 480 kts | 283° |
| 2026-05-07 03:48 | 49.13996 | 12.08212 | 35898 ft | 479 kts | 283° |
| 2026-05-07 03:49 | 49.16142 | 11.98571 | 35900 ft | 478 kts | 284° |
| 2026-05-07 03:49 | 49.18283 | 11.88908 | 36170 ft | 479 kts | 284° |
| 2026-05-07 03:49 | 49.19346 | 11.84092 | 35974 ft | 478 kts | 284° |
| 2026-05-07 03:50 | 49.20402 | 11.79301 | 35917 ft | 474 kts | 284° |
| 2026-05-07 03:50 | 49.22500 | 11.69739 | 35903 ft | 478 kts | 284° |
| 2026-05-07 03:51 | 49.24585 | 11.60199 | 35895 ft | 477 kts | 284° |
| 2026-05-07 03:51 | 49.26681 | 11.50558 | 35892 ft | 478 kts | 284° |
| 2026-05-07 03:52 | 49.28766 | 11.40927 | 35892 ft | 478 kts | 284° |
| 2026-05-07 03:52 | 49.30859 | 11.31212 | 35903 ft | 478 kts | 283° |
| 2026-05-07 03:53 | 49.32936 | 11.21527 | 35902 ft | 477 kts | 284° |
| 2026-05-07 03:53 | 49.35009 | 11.11812 | 35910 ft | 477 kts | 284° |
| 2026-05-07 03:54 | 49.37055 | 11.02180 | 35898 ft | 476 kts | 284° |
| 2026-05-07 03:54 | 49.39247 | 10.92538 | 35908 ft | 481 kts | 291° |
| 2026-05-07 03:55 | 49.42217 | 10.83350 | 35911 ft | 482 kts | 293° |
| 2026-05-07 03:55 | 49.45238 | 10.74107 | 35908 ft | 482 kts | 293° |
| 2026-05-07 03:56 | 49.48219 | 10.64916 | 35914 ft | 482 kts | 293° |
| 2026-05-07 03:56 | 49.51197 | 10.55682 | 35919 ft | 483 kts | 293° |
| 2026-05-07 03:57 | 49.54174 | 10.46406 | 35908 ft | 482 kts | 293° |
| 2026-05-07 03:57 | 49.57147 | 10.37104 | 35914 ft | 481 kts | 293° |
| 2026-05-07 03:58 | 49.60106 | 10.27809 | 35922 ft | 481 kts | 293° |
| 2026-05-07 03:58 | 49.63042 | 10.18549 | 35919 ft | 481 kts | 293° |
| 2026-05-07 03:59 | 49.65977 | 10.09258 | 35915 ft | 482 kts | 293° |
| 2026-05-07 03:59 | 49.68905 | 9.99954 | 35907 ft | 482 kts | 293° |
| 2026-05-07 04:00 | 49.71836 | 9.90602 | 35914 ft | 482 kts | 293° |
| 2026-05-07 04:00 | 49.74750 | 9.81272 | 35905 ft | 483 kts | 293° |
| 2026-05-07 04:01 | 49.77586 | 9.72157 | 35906 ft | 481 kts | 293° |
| 2026-05-07 04:01 | 49.80469 | 9.62855 | 35915 ft | 482 kts | 294° |
| 2026-05-07 04:02 | 49.83355 | 9.53509 | 35916 ft | 482 kts | 294° |
| 2026-05-07 04:02 | 49.86227 | 9.44173 | 35916 ft | 482 kts | 294° |
| 2026-05-07 04:03 | 49.89099 | 9.34799 | 35920 ft | 483 kts | 293° |
| 2026-05-07 04:03 | 49.91970 | 9.25396 | 35929 ft | 482 kts | 293° |
| 2026-05-07 04:04 | 49.94829 | 9.15997 | 35926 ft | 482 kts | 293° |
| 2026-05-07 04:04 | 49.97673 | 9.06608 | 35931 ft | 481 kts | 293° |
| 2026-05-07 04:05 | 50.00517 | 8.97185 | 35925 ft | 481 kts | 293° |
| 2026-05-07 04:05 | 50.03400 | 8.87594 | 35932 ft | 481 kts | 293° |
| 2026-05-07 04:06 | 50.06118 | 8.78065 | 35934 ft | 480 kts | 289° |
| 2026-05-07 04:06 | 50.08443 | 8.68320 | 35929 ft | 480 kts | 289° |
| 2026-05-07 04:07 | 50.10761 | 8.58498 | 35931 ft | 479 kts | 289° |
| 2026-05-07 04:07 | 50.13046 | 8.48773 | 35936 ft | 479 kts | 289° |
| 2026-05-07 04:08 | 50.15327 | 8.39021 | 35934 ft | 479 kts | 289° |
| 2026-05-07 04:08 | 50.17610 | 8.29219 | 35946 ft | 479 kts | 289° |
| 2026-05-07 04:09 | 50.19877 | 8.19452 | 35940 ft | 480 kts | 288° |
| 2026-05-07 04:09 | 50.22130 | 8.09674 | 35943 ft | 479 kts | 289° |
| 2026-05-07 04:10 | 50.24377 | 7.99884 | 35963 ft | 478 kts | 289° |
| 2026-05-07 04:10 | 50.26615 | 7.90090 | 35948 ft | 478 kts | 289° |
| 2026-05-07 04:11 | 50.28831 | 7.80351 | 35959 ft | 479 kts | 289° |
| 2026-05-07 04:11 | 50.31052 | 7.70545 | 35952 ft | 478 kts | 289° |
| 2026-05-07 04:12 | 50.33242 | 7.60825 | 35954 ft | 477 kts | 289° |
| 2026-05-07 04:12 | 50.35430 | 7.51075 | 35945 ft | 476 kts | 289° |
| 2026-05-07 04:13 | 50.37620 | 7.41268 | 35949 ft | 477 kts | 289° |
| 2026-05-07 04:13 | 50.39796 | 7.31479 | 35955 ft | 477 kts | 288° |
| 2026-05-07 04:14 | 50.41969 | 7.21663 | 35962 ft | 478 kts | 288° |
| 2026-05-07 04:14 | 50.44142 | 7.11793 | 35955 ft | 477 kts | 288° |
| 2026-05-07 04:15 | 50.46318 | 7.01865 | 35953 ft | 477 kts | 288° |
| 2026-05-07 04:15 | 50.48451 | 6.92084 | 35949 ft | 476 kts | 288° |
| 2026-05-07 04:16 | 50.50591 | 6.82226 | 35957 ft | 476 kts | 289° |
| 2026-05-07 04:16 | 50.52466 | 6.72165 | 35960 ft | 476 kts | 285° |
| 2026-05-07 04:17 | 50.54192 | 6.62177 | 35967 ft | 476 kts | 285° |
| 2026-05-07 04:17 | 50.55936 | 6.52118 | 35971 ft | 476 kts | 285° |
| 2026-05-07 04:18 | 50.57683 | 6.42038 | 35966 ft | 476 kts | 285° |
| 2026-05-07 04:18 | 50.59438 | 6.31879 | 35963 ft | 476 kts | 285° |
| 2026-05-07 04:19 | 50.61168 | 6.21814 | 35967 ft | 475 kts | 285° |
| 2026-05-07 04:19 | 50.62885 | 6.11780 | 35967 ft | 475 kts | 285° |
| 2026-05-07 04:20 | 50.64601 | 6.01698 | 35970 ft | 475 kts | 285° |
| 2026-05-07 04:20 | 50.66295 | 5.91690 | 35980 ft | 475 kts | 285° |
| 2026-05-07 04:21 | 50.68834 | 5.76580 | 35993 ft | 475 kts | 285° |
| 2026-05-07 04:21 | 50.70523 | 5.66458 | 35986 ft | 475 kts | 285° |
| 2026-05-07 04:22 | 50.72212 | 5.56274 | 35994 ft | 475 kts | 285° |
| 2026-05-07 04:22 | 50.73876 | 5.46182 | 35998 ft | 474 kts | 285° |
| 2026-05-07 04:23 | 50.75524 | 5.36124 | 35997 ft | 475 kts | 285° |
| 2026-05-07 04:23 | 50.77174 | 5.25995 | 35999 ft | 475 kts | 284° |
| 2026-05-07 04:24 | 50.78820 | 5.15835 | 36006 ft | 474 kts | 284° |
| 2026-05-07 04:24 | 50.80505 | 5.05699 | 36004 ft | 475 kts | 289° |
| 2026-05-07 04:25 | 50.83217 | 4.96252 | 36004 ft | 475 kts | 297° |
| 2026-05-07 04:25 | 50.86189 | 4.86945 | 35996 ft | 473 kts | 297° |
| 2026-05-07 04:26 | 50.89142 | 4.77634 | 36006 ft | 473 kts | 297° |
| 2026-05-07 04:26 | 50.92086 | 4.68298 | 36012 ft | 472 kts | 297° |
| 2026-05-07 04:27 | 50.95008 | 4.58983 | 36013 ft | 471 kts | 297° |
| 2026-05-07 04:27 | 50.97934 | 4.49615 | 36016 ft | 471 kts | 297° |
| 2026-05-07 04:28 | 51.00840 | 4.40271 | 36018 ft | 472 kts | 297° |
| 2026-05-07 04:28 | 51.03728 | 4.30947 | 36018 ft | 471 kts | 296° |
| 2026-05-07 04:29 | 51.06641 | 4.21505 | 36016 ft | 471 kts | 296° |
| 2026-05-07 04:29 | 51.09524 | 4.12124 | 36016 ft | 470 kts | 296° |
| 2026-05-07 04:30 | 51.12381 | 4.02795 | 36015 ft | 469 kts | 296° |
| 2026-05-07 04:30 | 51.15234 | 3.93439 | 36009 ft | 470 kts | 296° |
| 2026-05-07 04:31 | 51.18068 | 3.84109 | 36018 ft | 470 kts | 296° |
| 2026-05-07 04:31 | 51.20925 | 3.74669 | 36017 ft | 470 kts | 296° |
| 2026-05-07 04:32 | 51.23762 | 3.65259 | 36017 ft | 469 kts | 296° |
| 2026-05-07 04:32 | 51.26993 | 3.56294 | 36018 ft | 469 kts | 301° |
| 2026-05-07 04:33 | 51.30347 | 3.47415 | 36017 ft | 469 kts | 301° |
| 2026-05-07 04:33 | 51.33687 | 3.38460 | 36018 ft | 469 kts | 301° |
| 2026-05-07 04:34 | 51.36350 | 3.28970 | 36020 ft | 469 kts | 290° |
| 2026-05-07 04:34 | 51.38660 | 3.19257 | 36023 ft | 469 kts | 290° |
| 2026-05-07 04:35 | 51.40958 | 3.09532 | 36020 ft | 469 kts | 290° |
| 2026-05-07 04:35 | 51.43251 | 2.99793 | 36024 ft | 469 kts | 290° |
| 2026-05-07 04:36 | 51.45540 | 2.90024 | 36021 ft | 469 kts | 290° |
| 2026-05-07 04:36 | 51.47829 | 2.80206 | 36025 ft | 469 kts | 290° |
| 2026-05-07 04:37 | 51.50102 | 2.70411 | 36025 ft | 469 kts | 290° |
| 2026-05-07 04:37 | 51.52351 | 2.60675 | 36023 ft | 469 kts | 291° |
| 2026-05-07 04:38 | 51.54608 | 2.50861 | 36024 ft | 470 kts | 291° |
| 2026-05-07 04:38 | 51.56844 | 2.41083 | 36027 ft | 465 kts | 291° |
| 2026-05-07 04:39 | 51.59045 | 2.31423 | 36032 ft | 466 kts | 290° |
| 2026-05-07 04:39 | 51.61268 | 2.21648 | 36033 ft | 466 kts | 290° |
| 2026-05-07 04:40 | 51.63479 | 2.11877 | 35910 ft | 457 kts | 290° |
| 2026-05-07 04:40 | 51.64553 | 2.07110 | 35310 ft | 460 kts | 290° |
| 2026-05-07 04:40 | 51.65639 | 2.02271 | 34379 ft | 468 kts | 290° |
| 2026-05-07 04:41 | 51.66765 | 1.97242 | 33129 ft | 479 kts | 290° |
| 2026-05-07 04:41 | 51.67890 | 1.92206 | 31919 ft | 488 kts | 290° |
| 2026-05-07 04:41 | 51.69026 | 1.87107 | 31174 ft | 485 kts | 290° |
| 2026-05-07 04:41 | 51.70149 | 1.82051 | 30703 ft | 477 kts | 290° |
| 2026-05-07 04:42 | 51.71251 | 1.77079 | 30209 ft | 470 kts | 290° |
| 2026-05-07 04:42 | 51.72352 | 1.72101 | 29592 ft | 465 kts | 290° |
| 2026-05-07 04:42 | 51.73413 | 1.67219 | 28970 ft | 461 kts | 288° |
| 2026-05-07 04:42 | 51.74111 | 1.62238 | 28293 ft | 459 kts | 279° |
| 2026-05-07 04:43 | 51.74284 | 1.57161 | 27645 ft | 457 kts | 269° |
| 2026-05-07 04:43 | 51.74063 | 1.52077 | 27052 ft | 452 kts | 266° |
| 2026-05-07 04:43 | 51.73773 | 1.47019 | 26475 ft | 447 kts | 266° |
| 2026-05-07 04:43 | 51.73477 | 1.42088 | 25877 ft | 443 kts | 265° |
| 2026-05-07 04:44 | 51.73176 | 1.37206 | 25276 ft | 439 kts | 265° |
| 2026-05-07 04:44 | 51.72867 | 1.32306 | 24649 ft | 436 kts | 264° |
| 2026-05-07 04:44 | 51.72559 | 1.27507 | 24058 ft | 432 kts | 264° |
| 2026-05-07 04:44 | 51.72256 | 1.22843 | 23497 ft | 428 kts | 264° |
| 2026-05-07 04:45 | 51.71946 | 1.18133 | 22918 ft | 425 kts | 264° |
| 2026-05-07 04:45 | 51.71633 | 1.13422 | 22334 ft | 421 kts | 264° |
| 2026-05-07 04:45 | 51.71320 | 1.08751 | 21760 ft | 417 kts | 264° |
| 2026-05-07 04:45 | 51.71010 | 1.04172 | 21212 ft | 413 kts | 264° |
| 2026-05-07 04:46 | 51.70696 | 0.99563 | 20614 ft | 410 kts | 264° |
| 2026-05-07 04:46 | 51.70464 | 0.96180 | 20182 ft | 408 kts | 264° |
| 2026-05-07 04:46 | 51.70154 | 0.91678 | 19573 ft | 403 kts | 264° |
| 2026-05-07 04:46 | 51.69844 | 0.87205 | 18909 ft | 400 kts | 264° |
| 2026-05-07 04:47 | 51.69535 | 0.82774 | 18251 ft | 396 kts | 264° |
| 2026-05-07 04:47 | 51.69229 | 0.78413 | 17621 ft | 392 kts | 264° |
| 2026-05-07 04:47 | 51.68923 | 0.74076 | 16953 ft | 389 kts | 264° |
| 2026-05-07 04:47 | 51.68618 | 0.69784 | 16291 ft | 385 kts | 264° |
| 2026-05-07 04:48 | 51.68317 | 0.65566 | 15756 ft | 379 kts | 264° |
| 2026-05-07 04:48 | 51.68023 | 0.61454 | 15517 ft | 365 kts | 264° |
| 2026-05-07 04:48 | 51.67735 | 0.57462 | 15382 ft | 349 kts | 264° |
| 2026-05-07 04:48 | 51.67460 | 0.53670 | 15279 ft | 332 kts | 264° |
| 2026-05-07 04:49 | 51.67200 | 0.50096 | 15198 ft | 316 kts | 264° |
| 2026-05-07 04:49 | 51.66950 | 0.46673 | 15163 ft | 298 kts | 264° |
| 2026-05-07 04:49 | 51.66742 | 0.43453 | 15138 ft | 281 kts | 271° |
| 2026-05-07 04:49 | 51.67026 | 0.40432 | 14930 ft | 269 kts | 291° |
| 2026-05-07 04:50 | 51.67926 | 0.37883 | 14527 ft | 267 kts | 313° |
| 2026-05-07 04:50 | 51.69368 | 0.36018 | 14021 ft | 266 kts | 335° |
| 2026-05-07 04:50 | 51.71126 | 0.35167 | 13508 ft | 264 kts | 356° |
| 2026-05-07 04:50 | 51.72934 | 0.35442 | 13010 ft | 263 kts | 18° |
| 2026-05-07 04:51 | 51.74542 | 0.36799 | 12506 ft | 263 kts | 40° |
| 2026-05-07 04:51 | 51.75697 | 0.39006 | 12013 ft | 263 kts | 62° |
| 2026-05-07 04:51 | 51.76255 | 0.41795 | 11517 ft | 263 kts | 85° |
| 2026-05-07 04:51 | 51.76112 | 0.44705 | 11015 ft | 262 kts | 107° |
| 2026-05-07 04:52 | 51.75307 | 0.47278 | 10522 ft | 262 kts | 130° |
| 2026-05-07 04:52 | 51.73935 | 0.49193 | 10025 ft | 261 kts | 153° |
| 2026-05-07 04:52 | 51.72228 | 0.50019 | 9558 ft | 256 kts | 181° |
| 2026-05-07 04:52 | 51.70519 | 0.49413 | 9141 ft | 252 kts | 210° |
| 2026-05-07 04:53 | 51.69250 | 0.47588 | 8850 ft | 252 kts | 239° |
| 2026-05-07 04:53 | 51.68606 | 0.44833 | 8837 ft | 268 kts | 257° |
| 2026-05-07 04:53 | 51.68196 | 0.41879 | 8835 ft | 269 kts | 259° |
| 2026-05-07 04:53 | 51.67805 | 0.38953 | 8830 ft | 269 kts | 259° |
| 2026-05-07 04:54 | 51.67409 | 0.35993 | 8772 ft | 270 kts | 259° |
| 2026-05-07 04:54 | 51.67011 | 0.33024 | 8536 ft | 270 kts | 258° |
| 2026-05-07 04:54 | 51.66618 | 0.30092 | 8225 ft | 269 kts | 258° |
| 2026-05-07 04:54 | 51.66235 | 0.27247 | 7903 ft | 268 kts | 257° |
| 2026-05-07 04:55 | 51.65837 | 0.24290 | 7581 ft | 267 kts | 257° |
| 2026-05-07 04:55 | 51.65446 | 0.21398 | 7255 ft | 266 kts | 257° |
| 2026-05-07 04:55 | 51.65055 | 0.18509 | 7004 ft | 262 kts | 257° |
| 2026-05-07 04:55 | 51.64684 | 0.15710 | 6975 ft | 249 kts | 260° |
| 2026-05-07 04:56 | 51.64479 | 0.12997 | 6975 ft | 241 kts | 264° |
| 2026-05-07 04:56 | 51.64333 | 0.10304 | 6978 ft | 240 kts | 264° |
| 2026-05-07 04:56 | 51.64190 | 0.07658 | 6981 ft | 240 kts | 264° |
| 2026-05-07 04:56 | 51.64042 | 0.04959 | 6988 ft | 240 kts | 264° |
| 2026-05-07 04:57 | 51.63894 | 0.02284 | 6987 ft | 240 kts | 264° |
| 2026-05-07 04:57 | 51.63746 | -0.00376 | 6981 ft | 239 kts | 264° |
| 2026-05-07 04:57 | 51.63597 | -0.03033 | 6979 ft | 239 kts | 264° |
| 2026-05-07 04:57 | 51.63446 | -0.05722 | 6982 ft | 239 kts | 264° |
| 2026-05-07 04:58 | 51.63297 | -0.08368 | 6978 ft | 238 kts | 264° |
| 2026-05-07 04:58 | 51.63147 | -0.11023 | 6988 ft | 238 kts | 264° |
| 2026-05-07 04:58 | 51.62997 | -0.13660 | 6986 ft | 238 kts | 264° |
| 2026-05-07 04:58 | 51.62844 | -0.16339 | 6990 ft | 239 kts | 264° |
| 2026-05-07 04:59 | 51.62692 | -0.18999 | 6987 ft | 240 kts | 264° |
| 2026-05-07 04:59 | 51.62540 | -0.21648 | 6973 ft | 240 kts | 264° |
| 2026-05-07 04:59 | 51.62385 | -0.24324 | 6984 ft | 241 kts | 264° |
| 2026-05-07 04:59 | 51.62227 | -0.27052 | 6985 ft | 241 kts | 264° |
| 2026-05-07 05:00 | 51.62073 | -0.29695 | 6986 ft | 241 kts | 264° |
| 2026-05-07 05:00 | 51.61915 | -0.32406 | 6984 ft | 242 kts | 264° |
| 2026-05-07 05:00 | 51.61757 | -0.35093 | 6991 ft | 242 kts | 264° |
| 2026-05-07 05:00 | 51.61599 | -0.37783 | 6989 ft | 241 kts | 264° |
| 2026-05-07 05:01 | 51.61441 | -0.40443 | 6987 ft | 240 kts | 264° |
| 2026-05-07 05:01 | 51.61282 | -0.43121 | 6986 ft | 239 kts | 264° |
| 2026-05-07 05:01 | 51.61126 | -0.45737 | 6986 ft | 238 kts | 265° |
| 2026-05-07 05:01 | 51.60966 | -0.48424 | 6986 ft | 238 kts | 264° |
| 2026-05-07 05:02 | 51.60808 | -0.51060 | 6987 ft | 237 kts | 265° |
| 2026-05-07 05:02 | 51.60648 | -0.53699 | 6987 ft | 237 kts | 265° |
| 2026-05-07 05:02 | 51.60488 | -0.56344 | 6988 ft | 238 kts | 265° |
| 2026-05-07 05:02 | 51.60328 | -0.58976 | 6990 ft | 239 kts | 266° |
| 2026-05-07 05:03 | 51.60165 | -0.61653 | 6991 ft | 239 kts | 265° |
| 2026-05-07 05:03 | 51.60003 | -0.64298 | 6991 ft | 240 kts | 266° |
| 2026-05-07 05:03 | 51.59838 | -0.66995 | 6871 ft | 242 kts | 265° |
| 2026-05-07 05:03 | 51.59672 | -0.69688 | 6600 ft | 241 kts | 265° |
| 2026-05-07 05:04 | 51.59508 | -0.72337 | 6383 ft | 239 kts | 265° |
| 2026-05-07 05:04 | 51.59343 | -0.74986 | 6152 ft | 237 kts | 265° |
| 2026-05-07 05:04 | 51.59051 | -0.77568 | 5851 ft | 239 kts | 248° |
| 2026-05-07 05:04 | 51.58043 | -0.79692 | 5503 ft | 240 kts | 216° |
| 2026-05-07 05:05 | 51.56535 | -0.80721 | 5152 ft | 241 kts | 188° |
| 2026-05-07 05:05 | 51.54870 | -0.80454 | 4758 ft | 243 kts | 161° |
| 2026-05-07 05:05 | 51.53235 | -0.79722 | 4467 ft | 243 kts | 170° |
| 2026-05-07 05:05 | 51.51583 | -0.79424 | 4237 ft | 240 kts | 175° |
| 2026-05-07 05:06 | 51.49921 | -0.79278 | 4020 ft | 236 kts | 175° |
| 2026-05-07 05:06 | 51.48367 | -0.78523 | 3720 ft | 234 kts | 145° |
| 2026-05-07 05:06 | 51.47212 | -0.76748 | 3422 ft | 231 kts | 122° |
| 2026-05-07 05:06 | 51.46600 | -0.74436 | 3137 ft | 228 kts | 100° |
| 2026-05-07 05:07 | 51.46417 | -0.71901 | 2857 ft | 227 kts | 91° |
| 2026-05-07 05:07 | 51.46390 | -0.69377 | 2577 ft | 227 kts | 89° |
| 2026-05-07 05:07 | 51.46401 | -0.66850 | 2294 ft | 228 kts | 88° |
| 2026-05-07 05:07 | 51.46415 | -0.64330 | 1997 ft | 221 kts | 89° |
| 2026-05-07 05:08 | 51.46424 | -0.61988 | 1733 ft | 204 kts | 89° |
| 2026-05-07 05:08 | 51.46432 | -0.59795 | 1499 ft | 190 kts | 89° |
| 2026-05-07 05:08 | 51.46440 | -0.57734 | 1262 ft | 176 kts | 89° |
| 2026-05-07 05:08 | 51.46448 | -0.55860 | 1034 ft | 156 kts | 89° |
| 2026-05-07 05:09 | 51.46455 | -0.54176 | 854 ft | 146 kts | 88° |
| 2026-05-07 05:09 | 51.46462 | -0.52554 | 662 ft | 144 kts | 89° |
| 2026-05-07 05:09 | 51.46469 | -0.50961 | 467 ft | 142 kts | 89° |
| 2026-05-07 05:09 | 51.46475 | -0.49378 | 276 ft | 141 kts | 89° |
| 2026-05-07 05:10 | 51.46479 | -0.47796 | 106 ft | 141 kts | 89° |
| 2026-05-07 05:10 | 51.46486 | -0.46391 | 97 ft | 108 kts | 88° |
| 2026-05-07 05:10 | 51.46490 | -0.45380 | 97 ft | 73 kts | 90° |
| 2026-05-07 05:10 | 51.46491 | -0.44749 | 97 ft | 46 kts | 89° |
| 2026-05-07 05:11 | 51.46492 | -0.44288 | 97 ft | 33 kts | 88° |
| 2026-05-07 05:11 | 51.46529 | -0.44072 | 97 ft | 15 kts | 26° |
| 2026-05-07 05:11 | 51.46622 | -0.44057 | 97 ft | 12 kts | 0° |
| 2026-05-07 05:11 | 51.46688 | -0.44056 | 97 ft | 2 kts | 359° |
| 2026-05-07 05:12 | 51.46691 | -0.44056 | 97 ft | 0 kts | 359° |
| 2026-05-07 05:12 | 51.46692 | -0.44056 | 97 ft | 0 kts | 359° |
| 2026-05-07 05:12 | 51.46722 | -0.44059 | 97 ft | 7 kts | 350° |
| 2026-05-07 05:13 | 51.46751 | -0.44134 | 97 ft | 10 kts | 277° |
| 2026-05-07 05:13 | 51.46753 | -0.44281 | 97 ft | 15 kts | 269° |
| 2026-05-07 05:13 | 51.46752 | -0.44451 | 97 ft | 11 kts | 270° |
| 2026-05-07 05:13 | 51.46734 | -0.44541 | 97 ft | 8 kts | 213° |
| 2026-05-07 05:14 | 51.46681 | -0.44585 | 97 ft | 6 kts | 225° |
| 2026-05-07 05:14 | 51.46656 | -0.44643 | 97 ft | 3 kts | 233° |
| 2026-05-07 05:14 | 51.46655 | -0.44646 | 97 ft | 0 kts | 232° |
| 2026-05-07 05:14 | 51.46645 | -0.44665 | 97 ft | 5 kts | 227° |
| 2026-05-07 05:15 | 51.46602 | -0.44733 | 97 ft | 11 kts | 222° |
| 2026-05-07 05:15 | 51.46528 | -0.44839 | 97 ft | 17 kts | 220° |
| 2026-05-07 05:15 | 51.46436 | -0.44969 | 97 ft | 16 kts | 222° |
| 2026-05-07 05:15 | 51.46373 | -0.45056 | 97 ft | 11 kts | 218° |
| 2026-05-07 05:16 | 51.46324 | -0.45033 | 97 ft | 9 kts | 112° |
| 2026-05-07 05:16 | 51.46316 | -0.44908 | 97 ft | 12 kts | 89° |
| 2026-05-07 05:16 | 51.46316 | -0.44779 | 97 ft | 10 kts | 94° |
| 2026-05-07 05:16 | 51.46275 | -0.44719 | 97 ft | 7 kts | 195° |
| 2026-05-07 05:17 | 51.46234 | -0.44717 | 97 ft | 6 kts | 146° |
| 2026-05-07 05:17 | 51.46205 | -0.44671 | 97 ft | 4 kts | 132° |
| 2026-05-07 05:17 | 51.46195 | -0.44652 | 97 ft | 1 kts | 131° |
| 2026-05-07 05:17 | 51.46192 | -0.44647 | 97 ft | 0 kts | 132° |